sensor_id;sensor_type;location;lat;lon;timestamp;P1;durP1;ratioP1;P2;durP2;ratioP2
63398;SDS011;49533;-34.520;150.798;2024-03-29T00:00:16;9.10;;;3.30;;
63398;SDS011;49533;-34.520;150.798;2024-03-29T00:02:44;4.80;;;2.90;;
63398;SDS011;49533;-34.520;150.798;2024-03-29T00:05:11;5.90;;;3.08;;
63398;SDS011;49533;-34.520;150.798;2024-03-29T00:07:38;7.20;;;3.25;;
63398;SDS011;49533;-34.520;150.798;2024-03-29T00:10:05;4.68;;;2.92;;
63398;SDS011;49533;-34.520;150.798;2024-03-29T00:12:32;7.60;;;3.47;;
63398;SDS011;49533;-34.520;150.798;2024-03-29T00:14:59;5.50;;;3.08;;
63398;SDS011;49533;-34.520;150.798;2024-03-29T00:17:26;5.28;;;2.72;;
63398;SDS011;49533;-34.520;150.798;2024-03-29T00:19:53;5.03;;;2.95;;
63398;SDS011;49533;-34.520;150.798;2024-03-29T00:22:20;5.97;;;3.20;;
63398;SDS011;49533;-34.520;150.798;2024-03-29T00:24:47;5.95;;;3.25;;
63398;SDS011;49533;-34.520;150.798;2024-03-29T00:27:14;5.53;;;3.35;;
63398;SDS011;49533;-34.520;150.798;2024-03-29T00:29:41;5.50;;;3.40;;
63398;SDS011;49533;-34.520;150.798;2024-03-29T00:32:11;6.43;;;3.40;;
63398;SDS011;49533;-34.520;150.798;2024-03-29T00:34:39;7.72;;;3.55;;
63398;SDS011;49533;-34.520;150.798;2024-03-29T00:37:06;5.85;;;3.53;;
63398;SDS011;49533;-34.520;150.798;2024-03-29T00:39:33;7.60;;;3.55;;
63398;SDS011;49533;-34.520;150.798;2024-03-29T00:42:00;4.47;;;2.90;;
63398;SDS011;49533;-34.520;150.798;2024-03-29T00:44:27;5.07;;;2.90;;
63398;SDS011;49533;-34.520;150.798;2024-03-29T00:46:54;4.78;;;3.00;;
63398;SDS011;49533;-34.520;150.798;2024-03-29T00:49:21;5.43;;;3.00;;
63398;SDS011;49533;-34.520;150.798;2024-03-29T00:51:48;4.93;;;3.05;;
63398;SDS011;49533;-34.520;150.798;2024-03-29T00:54:16;4.28;;;3.00;;
63398;SDS011;49533;-34.520;150.798;2024-03-29T00:56:44;5.93;;;3.28;;
63398;SDS011;49533;-34.520;150.798;2024-03-29T00:59:11;6.05;;;3.05;;
63398;SDS011;49533;-34.520;150.798;2024-03-29T01:01:38;3.45;;;2.72;;
63398;SDS011;49533;-34.520;150.798;2024-03-29T01:04:05;3.05;;;2.78;;
63398;SDS011;49533;-34.520;150.798;2024-03-29T01:06:32;6.55;;;3.13;;
63398;SDS011;49533;-34.520;150.798;2024-03-29T01:09:00;6.45;;;3.45;;
63398;SDS011;49533;-34.520;150.798;2024-03-29T01:11:29;6.35;;;3.08;;
63398;SDS011;49533;-34.520;150.798;2024-03-29T01:13:56;3.97;;;2.90;;
63398;SDS011;49533;-34.520;150.798;2024-03-29T01:16:23;4.95;;;3.13;;
63398;SDS011;49533;-34.520;150.798;2024-03-29T01:18:50;3.38;;;2.72;;
63398;SDS011;49533;-34.520;150.798;2024-03-29T01:21:18;5.32;;;3.10;;
63398;SDS011;49533;-34.520;150.798;2024-03-29T01:23:45;7.07;;;3.53;;
63398;SDS011;49533;-34.520;150.798;2024-03-29T01:26:12;7.57;;;3.13;;
63398;SDS011;49533;-34.520;150.798;2024-03-29T01:28:40;3.38;;;2.83;;
63398;SDS011;49533;-34.520;150.798;2024-03-29T01:31:07;3.55;;;3.00;;
63398;SDS011;49533;-34.520;150.798;2024-03-29T01:33:34;3.75;;;3.00;;
63398;SDS011;49533;-34.520;150.798;2024-03-29T01:36:05;4.65;;;3.22;;
63398;SDS011;49533;-34.520;150.798;2024-03-29T01:38:35;5.70;;;3.40;;
63398;SDS011;49533;-34.520;150.798;2024-03-29T01:41:03;4.22;;;2.97;;
63398;SDS011;49533;-34.520;150.798;2024-03-29T01:43:30;4.07;;;3.05;;
63398;SDS011;49533;-34.520;150.798;2024-03-29T01:45:57;10.73;;;3.20;;
63398;SDS011;49533;-34.520;150.798;2024-03-29T01:48:24;8.77;;;3.08;;
63398;SDS011;49533;-34.520;150.798;2024-03-29T01:50:53;3.70;;;3.10;;
63398;SDS011;49533;-34.520;150.798;2024-03-29T01:53:23;4.57;;;2.90;;
63398;SDS011;49533;-34.520;150.798;2024-03-29T01:55:51;3.97;;;3.13;;
63398;SDS011;49533;-34.520;150.798;2024-03-29T01:58:19;5.43;;;3.22;;
63398;SDS011;49533;-34.520;150.798;2024-03-29T02:00:52;4.32;;;3.08;;
63398;SDS011;49533;-34.520;150.798;2024-03-29T02:03:24;7.25;;;3.20;;
63398;SDS011;49533;-34.520;150.798;2024-03-29T02:05:51;4.50;;;2.85;;
63398;SDS011;49533;-34.520;150.798;2024-03-29T02:08:19;3.75;;;3.15;;
63398;SDS011;49533;-34.520;150.798;2024-03-29T02:10:46;3.13;;;2.72;;
63398;SDS011;49533;-34.520;150.798;2024-03-29T02:13:14;4.60;;;2.80;;
63398;SDS011;49533;-34.520;150.798;2024-03-29T02:15:41;4.22;;;3.58;;
63398;SDS011;49533;-34.520;150.798;2024-03-29T02:18:08;4.80;;;3.13;;
63398;SDS011;49533;-34.520;150.798;2024-03-29T02:20:35;4.40;;;2.92;;
63398;SDS011;49533;-34.520;150.798;2024-03-29T02:25:35;3.72;;;2.72;;
63398;SDS011;49533;-34.520;150.798;2024-03-29T02:28:02;3.22;;;2.92;;
63398;SDS011;49533;-34.520;150.798;2024-03-29T02:30:33;4.22;;;3.03;;
63398;SDS011;49533;-34.520;150.798;2024-03-29T02:33:00;5.32;;;3.10;;
63398;SDS011;49533;-34.520;150.798;2024-03-29T02:35:28;4.57;;;3.10;;
63398;SDS011;49533;-34.520;150.798;2024-03-29T02:37:56;2.80;;;2.53;;
63398;SDS011;49533;-34.520;150.798;2024-03-29T02:40:23;4.05;;;3.00;;
63398;SDS011;49533;-34.520;150.798;2024-03-29T02:42:50;3.17;;;2.88;;
63398;SDS011;49533;-34.520;150.798;2024-03-29T02:45:17;2.92;;;2.58;;
63398;SDS011;49533;-34.520;150.798;2024-03-29T02:47:44;3.53;;;2.70;;
63398;SDS011;49533;-34.520;150.798;2024-03-29T02:50:13;3.88;;;2.83;;
63398;SDS011;49533;-34.520;150.798;2024-03-29T02:52:41;5.13;;;2.97;;
63398;SDS011;49533;-34.520;150.798;2024-03-29T02:55:09;4.70;;;3.30;;
63398;SDS011;49533;-34.520;150.798;2024-03-29T02:57:39;3.03;;;2.65;;
63398;SDS011;49533;-34.520;150.798;2024-03-29T03:00:07;3.55;;;2.88;;
63398;SDS011;49533;-34.520;150.798;2024-03-29T03:02:37;3.40;;;3.08;;
63398;SDS011;49533;-34.520;150.798;2024-03-29T03:05:05;4.13;;;2.67;;
63398;SDS011;49533;-34.520;150.798;2024-03-29T03:07:37;4.13;;;2.85;;
63398;SDS011;49533;-34.520;150.798;2024-03-29T03:10:22;3.47;;;3.00;;
63398;SDS011;49533;-34.520;150.798;2024-03-29T03:13:07;3.35;;;2.78;;
63398;SDS011;49533;-34.520;150.798;2024-03-29T03:15:34;6.68;;;3.25;;
63398;SDS011;49533;-34.520;150.798;2024-03-29T03:18:01;4.68;;;3.08;;
63398;SDS011;49533;-34.520;150.798;2024-03-29T03:20:28;3.28;;;2.88;;
63398;SDS011;49533;-34.520;150.798;2024-03-29T03:22:57;3.85;;;3.15;;
63398;SDS011;49533;-34.520;150.798;2024-03-29T03:25:25;3.70;;;3.00;;
63398;SDS011;49533;-34.520;150.798;2024-03-29T03:27:55;5.15;;;3.33;;
63398;SDS011;49533;-34.520;150.798;2024-03-29T03:30:22;4.80;;;2.88;;
63398;SDS011;49533;-34.520;150.798;2024-03-29T03:32:49;4.07;;;2.90;;
63398;SDS011;49533;-34.520;150.798;2024-03-29T03:35:16;4.45;;;2.58;;
63398;SDS011;49533;-34.520;150.798;2024-03-29T03:37:43;3.70;;;3.20;;
63398;SDS011;49533;-34.520;150.798;2024-03-29T03:40:11;3.78;;;3.38;;
63398;SDS011;49533;-34.520;150.798;2024-03-29T03:42:38;3.60;;;3.28;;
63398;SDS011;49533;-34.520;150.798;2024-03-29T03:45:06;4.78;;;3.30;;
63398;SDS011;49533;-34.520;150.798;2024-03-29T03:47:33;4.25;;;3.13;;
63398;SDS011;49533;-34.520;150.798;2024-03-29T03:50:00;3.30;;;2.88;;
63398;SDS011;49533;-34.520;150.798;2024-03-29T03:52:28;7.50;;;3.60;;
63398;SDS011;49533;-34.520;150.798;2024-03-29T03:54:55;4.78;;;3.25;;
63398;SDS011;49533;-34.520;150.798;2024-03-29T03:57:22;3.20;;;2.90;;
63398;SDS011;49533;-34.520;150.798;2024-03-29T03:59:49;3.67;;;3.03;;
63398;SDS011;49533;-34.520;150.798;2024-03-29T04:02:16;3.72;;;3.15;;
63398;SDS011;49533;-34.520;150.798;2024-03-29T04:04:46;6.63;;;3.13;;
63398;SDS011;49533;-34.520;150.798;2024-03-29T04:07:14;3.42;;;2.85;;
63398;SDS011;49533;-34.520;150.798;2024-03-29T04:09:41;5.03;;;3.25;;
63398;SDS011;49533;-34.520;150.798;2024-03-29T04:12:08;4.65;;;3.10;;
63398;SDS011;49533;-34.520;150.798;2024-03-29T04:14:38;4.03;;;3.30;;
63398;SDS011;49533;-34.520;150.798;2024-03-29T04:17:05;4.85;;;3.25;;
63398;SDS011;49533;-34.520;150.798;2024-03-29T04:19:32;3.60;;;2.90;;
63398;SDS011;49533;-34.520;150.798;2024-03-29T04:21:59;5.72;;;3.33;;
63398;SDS011;49533;-34.520;150.798;2024-03-29T04:24:27;2.75;;;2.55;;
63398;SDS011;49533;-34.520;150.798;2024-03-29T04:26:54;3.97;;;3.00;;
63398;SDS011;49533;-34.520;150.798;2024-03-29T04:29:23;4.85;;;3.00;;
63398;SDS011;49533;-34.520;150.798;2024-03-29T04:31:50;2.92;;;2.70;;
63398;SDS011;49533;-34.520;150.798;2024-03-29T04:34:17;3.85;;;3.00;;
63398;SDS011;49533;-34.520;150.798;2024-03-29T04:36:44;3.38;;;3.08;;
63398;SDS011;49533;-34.520;150.798;2024-03-29T04:39:11;4.85;;;3.00;;
63398;SDS011;49533;-34.520;150.798;2024-03-29T04:41:38;5.30;;;3.10;;
63398;SDS011;49533;-34.520;150.798;2024-03-29T04:44:05;3.92;;;2.92;;
63398;SDS011;49533;-34.520;150.798;2024-03-29T04:46:33;5.35;;;3.05;;
63398;SDS011;49533;-34.520;150.798;2024-03-29T04:49:00;3.10;;;2.80;;
63398;SDS011;49533;-34.520;150.798;2024-03-29T04:51:27;5.60;;;2.90;;
63398;SDS011;49533;-34.520;150.798;2024-03-29T04:53:55;3.03;;;2.72;;
63398;SDS011;49533;-34.520;150.798;2024-03-29T04:56:22;5.70;;;2.72;;
63398;SDS011;49533;-34.520;150.798;2024-03-29T04:58:49;3.88;;;3.17;;
63398;SDS011;49533;-34.520;150.798;2024-03-29T05:01:16;4.22;;;2.72;;
63398;SDS011;49533;-34.520;150.798;2024-03-29T05:03:44;4.10;;;2.65;;
63398;SDS011;49533;-34.520;150.798;2024-03-29T05:06:11;3.97;;;2.88;;
63398;SDS011;49533;-34.520;150.798;2024-03-29T05:08:38;4.75;;;2.90;;
63398;SDS011;49533;-34.520;150.798;2024-03-29T05:11:05;4.72;;;2.45;;
63398;SDS011;49533;-34.520;150.798;2024-03-29T05:13:33;3.85;;;2.80;;
63398;SDS011;49533;-34.520;150.798;2024-03-29T05:16:00;5.65;;;2.83;;
63398;SDS011;49533;-34.520;150.798;2024-03-29T05:18:27;3.22;;;2.42;;
63398;SDS011;49533;-34.520;150.798;2024-03-29T05:20:54;2.78;;;2.58;;
63398;SDS011;49533;-34.520;150.798;2024-03-29T05:23:21;2.92;;;2.40;;
63398;SDS011;49533;-34.520;150.798;2024-03-29T05:25:48;3.28;;;2.97;;
63398;SDS011;49533;-34.520;150.798;2024-03-29T05:28:15;3.10;;;2.80;;
63398;SDS011;49533;-34.520;150.798;2024-03-29T05:30:43;3.05;;;2.63;;
63398;SDS011;49533;-34.520;150.798;2024-03-29T05:33:10;3.10;;;2.83;;
63398;SDS011;49533;-34.520;150.798;2024-03-29T05:35:37;3.00;;;2.70;;
63398;SDS011;49533;-34.520;150.798;2024-03-29T05:38:04;4.07;;;2.72;;
63398;SDS011;49533;-34.520;150.798;2024-03-29T05:40:32;4.63;;;2.80;;
63398;SDS011;49533;-34.520;150.798;2024-03-29T05:42:59;7.47;;;3.30;;
63398;SDS011;49533;-34.520;150.798;2024-03-29T05:45:27;7.10;;;3.15;;
63398;SDS011;49533;-34.520;150.798;2024-03-29T05:47:55;3.28;;;2.97;;
63398;SDS011;49533;-34.520;150.798;2024-03-29T05:50:24;6.15;;;3.10;;
63398;SDS011;49533;-34.520;150.798;2024-03-29T05:52:52;2.92;;;2.67;;
63398;SDS011;49533;-34.520;150.798;2024-03-29T05:55:19;6.72;;;3.05;;
63398;SDS011;49533;-34.520;150.798;2024-03-29T05:57:47;3.60;;;2.72;;
63398;SDS011;49533;-34.520;150.798;2024-03-29T06:00:14;2.83;;;2.63;;
63398;SDS011;49533;-34.520;150.798;2024-03-29T06:02:42;5.80;;;2.78;;
63398;SDS011;49533;-34.520;150.798;2024-03-29T06:05:13;4.75;;;2.97;;
63398;SDS011;49533;-34.520;150.798;2024-03-29T06:07:41;4.25;;;2.97;;
63398;SDS011;49533;-34.520;150.798;2024-03-29T06:10:08;3.42;;;2.83;;
63398;SDS011;49533;-34.520;150.798;2024-03-29T06:12:36;3.40;;;2.72;;
63398;SDS011;49533;-34.520;150.798;2024-03-29T06:15:06;4.55;;;3.15;;
63398;SDS011;49533;-34.520;150.798;2024-03-29T06:17:51;4.57;;;2.83;;
63398;SDS011;49533;-34.520;150.798;2024-03-29T06:20:18;4.40;;;2.88;;
63398;SDS011;49533;-34.520;150.798;2024-03-29T06:22:45;4.32;;;3.03;;
63398;SDS011;49533;-34.520;150.798;2024-03-29T06:25:13;4.18;;;3.00;;
63398;SDS011;49533;-34.520;150.798;2024-03-29T06:27:41;4.25;;;2.70;;
63398;SDS011;49533;-34.520;150.798;2024-03-29T06:30:13;4.13;;;2.90;;
63398;SDS011;49533;-34.520;150.798;2024-03-29T06:32:44;7.55;;;3.38;;
63398;SDS011;49533;-34.520;150.798;2024-03-29T06:35:14;3.70;;;2.90;;
63398;SDS011;49533;-34.520;150.798;2024-03-29T06:37:41;6.22;;;3.17;;
63398;SDS011;49533;-34.520;150.798;2024-03-29T06:40:08;4.35;;;2.65;;
63398;SDS011;49533;-34.520;150.798;2024-03-29T06:42:36;4.97;;;2.83;;
63398;SDS011;49533;-34.520;150.798;2024-03-29T06:45:04;4.57;;;3.13;;
63398;SDS011;49533;-34.520;150.798;2024-03-29T06:47:32;8.13;;;2.97;;
63398;SDS011;49533;-34.520;150.798;2024-03-29T06:49:59;3.65;;;2.80;;
63398;SDS011;49533;-34.520;150.798;2024-03-29T06:52:26;3.80;;;3.20;;
63398;SDS011;49533;-34.520;150.798;2024-03-29T06:54:54;3.22;;;2.55;;
63398;SDS011;49533;-34.520;150.798;2024-03-29T06:57:21;4.60;;;3.00;;
63398;SDS011;49533;-34.520;150.798;2024-03-29T06:59:51;4.43;;;3.10;;
63398;SDS011;49533;-34.520;150.798;2024-03-29T07:02:18;3.20;;;2.78;;
63398;SDS011;49533;-34.520;150.798;2024-03-29T07:04:45;4.57;;;2.85;;
63398;SDS011;49533;-34.520;150.798;2024-03-29T07:07:12;4.47;;;2.80;;
63398;SDS011;49533;-34.520;150.798;2024-03-29T07:09:39;3.53;;;3.03;;
63398;SDS011;49533;-34.520;150.798;2024-03-29T07:12:06;4.57;;;2.85;;
63398;SDS011;49533;-34.520;150.798;2024-03-29T07:14:34;2.97;;;2.58;;
63398;SDS011;49533;-34.520;150.798;2024-03-29T07:17:01;3.40;;;2.53;;
63398;SDS011;49533;-34.520;150.798;2024-03-29T07:19:29;2.65;;;2.45;;
63398;SDS011;49533;-34.520;150.798;2024-03-29T07:21:56;4.40;;;2.78;;
63398;SDS011;49533;-34.520;150.798;2024-03-29T07:24:23;3.17;;;2.88;;
63398;SDS011;49533;-34.520;150.798;2024-03-29T07:26:50;2.90;;;2.70;;
63398;SDS011;49533;-34.520;150.798;2024-03-29T07:29:17;3.30;;;2.55;;
63398;SDS011;49533;-34.520;150.798;2024-03-29T07:31:47;2.88;;;2.67;;
63398;SDS011;49533;-34.520;150.798;2024-03-29T07:34:14;3.03;;;2.72;;
63398;SDS011;49533;-34.520;150.798;2024-03-29T07:36:41;3.85;;;3.00;;
63398;SDS011;49533;-34.520;150.798;2024-03-29T07:39:08;2.75;;;2.50;;
63398;SDS011;49533;-34.520;150.798;2024-03-29T07:41:36;3.38;;;2.63;;
63398;SDS011;49533;-34.520;150.798;2024-03-29T07:44:03;3.10;;;2.85;;
63398;SDS011;49533;-34.520;150.798;2024-03-29T07:46:33;3.28;;;2.55;;
63398;SDS011;49533;-34.520;150.798;2024-03-29T07:49:01;2.78;;;2.58;;
63398;SDS011;49533;-34.520;150.798;2024-03-29T07:51:28;3.40;;;2.70;;
63398;SDS011;49533;-34.520;150.798;2024-03-29T07:53:56;2.95;;;2.42;;
63398;SDS011;49533;-34.520;150.798;2024-03-29T07:56:23;3.03;;;2.80;;
63398;SDS011;49533;-34.520;150.798;2024-03-29T07:58:53;4.82;;;3.10;;
63398;SDS011;49533;-34.520;150.798;2024-03-29T08:01:21;2.97;;;2.67;;
63398;SDS011;49533;-34.520;150.798;2024-03-29T08:03:52;3.05;;;2.85;;
63398;SDS011;49533;-34.520;150.798;2024-03-29T08:06:19;2.50;;;2.30;;
63398;SDS011;49533;-34.520;150.798;2024-03-29T08:08:51;3.85;;;2.70;;
63398;SDS011;49533;-34.520;150.798;2024-03-29T08:11:18;4.53;;;2.67;;
63398;SDS011;49533;-34.520;150.798;2024-03-29T08:13:45;2.65;;;2.45;;
63398;SDS011;49533;-34.520;150.798;2024-03-29T08:16:13;2.72;;;2.50;;
63398;SDS011;49533;-34.520;150.798;2024-03-29T08:18:42;3.30;;;2.45;;
63398;SDS011;49533;-34.520;150.798;2024-03-29T08:21:12;3.03;;;2.42;;
63398;SDS011;49533;-34.520;150.798;2024-03-29T08:23:40;3.40;;;2.70;;
63398;SDS011;49533;-34.520;150.798;2024-03-29T08:26:12;2.47;;;2.28;;
63398;SDS011;49533;-34.520;150.798;2024-03-29T08:28:39;5.13;;;2.75;;
63398;SDS011;49533;-34.520;150.798;2024-03-29T08:31:06;2.67;;;2.40;;
63398;SDS011;49533;-34.520;150.798;2024-03-29T08:33:36;3.38;;;2.80;;
63398;SDS011;49533;-34.520;150.798;2024-03-29T08:36:06;2.60;;;2.40;;
63398;SDS011;49533;-34.520;150.798;2024-03-29T08:38:34;3.05;;;2.83;;
63398;SDS011;49533;-34.520;150.798;2024-03-29T08:41:02;3.08;;;2.83;;
63398;SDS011;49533;-34.520;150.798;2024-03-29T08:43:29;3.03;;;2.75;;
63398;SDS011;49533;-34.520;150.798;2024-03-29T08:45:57;4.43;;;2.70;;
63398;SDS011;49533;-34.520;150.798;2024-03-29T08:48:26;5.03;;;2.85;;
63398;SDS011;49533;-34.520;150.798;2024-03-29T08:50:53;4.93;;;2.97;;
63398;SDS011;49533;-34.520;150.798;2024-03-29T08:53:20;4.10;;;3.00;;
63398;SDS011;49533;-34.520;150.798;2024-03-29T08:55:48;4.65;;;3.10;;
63398;SDS011;49533;-34.520;150.798;2024-03-29T08:58:15;3.55;;;3.25;;
63398;SDS011;49533;-34.520;150.798;2024-03-29T09:00:52;3.03;;;2.72;;
63398;SDS011;49533;-34.520;150.798;2024-03-29T09:03:23;3.28;;;2.97;;
63398;SDS011;49533;-34.520;150.798;2024-03-29T09:05:50;4.07;;;2.72;;
63398;SDS011;49533;-34.520;150.798;2024-03-29T09:08:18;4.22;;;3.22;;
63398;SDS011;49533;-34.520;150.798;2024-03-29T09:10:45;3.85;;;3.05;;
63398;SDS011;49533;-34.520;150.798;2024-03-29T09:13:12;5.22;;;3.35;;
63398;SDS011;49533;-34.520;150.798;2024-03-29T09:15:39;3.55;;;3.22;;
63398;SDS011;49533;-34.520;150.798;2024-03-29T09:18:07;4.63;;;2.85;;
63398;SDS011;49533;-34.520;150.798;2024-03-29T09:21:00;4.05;;;3.05;;
63398;SDS011;49533;-34.520;150.798;2024-03-29T09:23:28;3.53;;;2.88;;
63398;SDS011;49533;-34.520;150.798;2024-03-29T09:25:55;4.30;;;3.15;;
63398;SDS011;49533;-34.520;150.798;2024-03-29T09:28:23;3.38;;;3.05;;
63398;SDS011;49533;-34.520;150.798;2024-03-29T09:30:50;3.50;;;3.20;;
63398;SDS011;49533;-34.520;150.798;2024-03-29T09:33:27;3.38;;;2.95;;
63398;SDS011;49533;-34.520;150.798;2024-03-29T09:35:55;5.00;;;3.65;;
63398;SDS011;49533;-34.520;150.798;2024-03-29T09:38:25;4.95;;;3.30;;
63398;SDS011;49533;-34.520;150.798;2024-03-29T09:41:14;6.35;;;3.45;;
63398;SDS011;49533;-34.520;150.798;2024-03-29T09:43:41;3.58;;;3.28;;
63398;SDS011;49533;-34.520;150.798;2024-03-29T09:46:10;3.85;;;3.40;;
63398;SDS011;49533;-34.520;150.798;2024-03-29T09:48:42;3.80;;;3.10;;
63398;SDS011;49533;-34.520;150.798;2024-03-29T09:51:12;4.70;;;3.38;;
63398;SDS011;49533;-34.520;150.798;2024-03-29T09:53:41;3.40;;;2.88;;
63398;SDS011;49533;-34.520;150.798;2024-03-29T09:56:10;3.53;;;3.00;;
63398;SDS011;49533;-34.520;150.798;2024-03-29T09:58:37;3.83;;;3.00;;
63398;SDS011;49533;-34.520;150.798;2024-03-29T10:01:05;3.53;;;3.22;;
63398;SDS011;49533;-34.520;150.798;2024-03-29T10:03:42;3.10;;;2.80;;
63398;SDS011;49533;-34.520;150.798;2024-03-29T10:06:15;5.22;;;3.00;;
63398;SDS011;49533;-34.520;150.798;2024-03-29T10:08:44;2.92;;;2.63;;
63398;SDS011;49533;-34.520;150.798;2024-03-29T10:11:13;2.95;;;2.70;;
63398;SDS011;49533;-34.520;150.798;2024-03-29T10:13:45;4.15;;;3.28;;
63398;SDS011;49533;-34.520;150.798;2024-03-29T10:16:12;3.55;;;3.25;;
63398;SDS011;49533;-34.520;150.798;2024-03-29T10:18:43;3.47;;;2.90;;
63398;SDS011;49533;-34.520;150.798;2024-03-29T10:21:13;3.08;;;2.88;;
63398;SDS011;49533;-34.520;150.798;2024-03-29T10:23:40;3.03;;;2.83;;
63398;SDS011;49533;-34.520;150.798;2024-03-29T10:26:08;3.63;;;2.88;;
63398;SDS011;49533;-34.520;150.798;2024-03-29T10:28:36;3.17;;;2.88;;
63398;SDS011;49533;-34.520;150.798;2024-03-29T10:31:05;2.97;;;2.78;;
63398;SDS011;49533;-34.520;150.798;2024-03-29T10:33:33;3.70;;;2.80;;
63398;SDS011;49533;-34.520;150.798;2024-03-29T10:36:02;2.83;;;2.63;;
63398;SDS011;49533;-34.520;150.798;2024-03-29T10:38:35;2.75;;;2.47;;
63398;SDS011;49533;-34.520;150.798;2024-03-29T10:41:02;3.60;;;2.63;;
63398;SDS011;49533;-34.520;150.798;2024-03-29T10:43:32;3.55;;;2.75;;
63398;SDS011;49533;-34.520;150.798;2024-03-29T10:46:00;3.08;;;2.35;;
63398;SDS011;49533;-34.520;150.798;2024-03-29T10:48:29;3.03;;;2.78;;
63398;SDS011;49533;-34.520;150.798;2024-03-29T10:51:01;2.90;;;2.38;;
63398;SDS011;49533;-34.520;150.798;2024-03-29T10:53:29;2.97;;;2.72;;
63398;SDS011;49533;-34.520;150.798;2024-03-29T10:55:57;4.30;;;2.60;;
63398;SDS011;49533;-34.520;150.798;2024-03-29T10:58:25;2.90;;;2.65;;
63398;SDS011;49533;-34.520;150.798;2024-03-29T11:00:57;2.50;;;2.33;;
63398;SDS011;49533;-34.520;150.798;2024-03-29T11:04:09;2.60;;;2.40;;
63398;SDS011;49533;-34.520;150.798;2024-03-29T11:06:21;2.70;;;2.50;;
63398;SDS011;49533;-34.520;150.798;2024-03-29T11:08:52;2.78;;;2.58;;
63398;SDS011;49533;-34.520;150.798;2024-03-29T11:11:23;2.60;;;2.40;;
63398;SDS011;49533;-34.520;150.798;2024-03-29T11:14:03;2.78;;;2.58;;
63398;SDS011;49533;-34.520;150.798;2024-03-29T11:16:34;3.55;;;2.45;;
63398;SDS011;49533;-34.520;150.798;2024-03-29T11:19:01;2.80;;;2.60;;
63398;SDS011;49533;-34.520;150.798;2024-03-29T11:21:31;3.42;;;2.75;;
63398;SDS011;49533;-34.520;150.798;2024-03-29T11:23:58;2.72;;;2.53;;
63398;SDS011;49533;-34.520;150.798;2024-03-29T11:26:30;2.63;;;2.42;;
63398;SDS011;49533;-34.520;150.798;2024-03-29T11:28:58;2.80;;;2.60;;
63398;SDS011;49533;-34.520;150.798;2024-03-29T11:31:26;2.60;;;2.40;;
63398;SDS011;49533;-34.520;150.798;2024-03-29T11:33:56;2.70;;;2.42;;
63398;SDS011;49533;-34.520;150.798;2024-03-29T11:36:24;2.35;;;2.05;;
63398;SDS011;49533;-34.520;150.798;2024-03-29T11:38:57;2.70;;;2.50;;
63398;SDS011;49533;-34.520;150.798;2024-03-29T11:41:27;2.15;;;1.95;;
63398;SDS011;49533;-34.520;150.798;2024-03-29T11:43:55;2.60;;;2.45;;
63398;SDS011;49533;-34.520;150.798;2024-03-29T11:46:23;2.55;;;2.35;;
63398;SDS011;49533;-34.520;150.798;2024-03-29T11:48:51;2.95;;;2.50;;
63398;SDS011;49533;-34.520;150.798;2024-03-29T11:51:19;2.15;;;1.95;;
63398;SDS011;49533;-34.520;150.798;2024-03-29T11:53:49;3.67;;;2.90;;
63398;SDS011;49533;-34.520;150.798;2024-03-29T11:56:18;2.30;;;2.10;;
63398;SDS011;49533;-34.520;150.798;2024-03-29T11:58:46;2.67;;;2.42;;
63398;SDS011;49533;-34.520;150.798;2024-03-29T12:01:16;2.55;;;2.35;;
63398;SDS011;49533;-34.520;150.798;2024-03-29T12:03:44;2.80;;;2.13;;
63398;SDS011;49533;-34.520;150.798;2024-03-29T12:06:14;2.72;;;2.53;;
63398;SDS011;49533;-34.520;150.798;2024-03-29T12:08:42;3.65;;;2.70;;
63398;SDS011;49533;-34.520;150.798;2024-03-29T12:11:10;2.95;;;2.47;;
63398;SDS011;49533;-34.520;150.798;2024-03-29T12:13:37;2.70;;;2.50;;
63398;SDS011;49533;-34.520;150.798;2024-03-29T12:16:06;2.47;;;2.28;;
63398;SDS011;49533;-34.520;150.798;2024-03-29T12:18:34;2.70;;;2.50;;
63398;SDS011;49533;-34.520;150.798;2024-03-29T12:21:01;2.88;;;2.05;;
63398;SDS011;49533;-34.520;150.798;2024-03-29T12:23:29;4.30;;;2.53;;
63398;SDS011;49533;-34.520;150.798;2024-03-29T12:25:57;2.28;;;2.17;;
63398;SDS011;49533;-34.520;150.798;2024-03-29T12:28:24;2.63;;;2.42;;
63398;SDS011;49533;-34.520;150.798;2024-03-29T12:30:52;2.65;;;2.45;;
63398;SDS011;49533;-34.520;150.798;2024-03-29T12:33:21;2.63;;;2.38;;
63398;SDS011;49533;-34.520;150.798;2024-03-29T12:35:50;2.90;;;2.10;;
63398;SDS011;49533;-34.520;150.798;2024-03-29T12:38:20;2.47;;;2.25;;
63398;SDS011;49533;-34.520;150.798;2024-03-29T12:40:48;2.28;;;2.08;;
63398;SDS011;49533;-34.520;150.798;2024-03-29T12:43:20;3.05;;;2.55;;
63398;SDS011;49533;-34.520;150.798;2024-03-29T12:45:49;3.38;;;2.47;;
63398;SDS011;49533;-34.520;150.798;2024-03-29T12:48:19;2.67;;;2.47;;
63398;SDS011;49533;-34.520;150.798;2024-03-29T12:50:48;3.75;;;2.63;;
63398;SDS011;49533;-34.520;150.798;2024-03-29T12:53:16;2.85;;;2.40;;
63398;SDS011;49533;-34.520;150.798;2024-03-29T12:55:44;2.65;;;2.45;;
63398;SDS011;49533;-34.520;150.798;2024-03-29T12:58:12;2.47;;;2.35;;
63398;SDS011;49533;-34.520;150.798;2024-03-29T13:00:41;4.53;;;2.45;;
63398;SDS011;49533;-34.520;150.798;2024-03-29T13:03:09;3.58;;;2.53;;
63398;SDS011;49533;-34.520;150.798;2024-03-29T13:05:36;2.55;;;2.35;;
63398;SDS011;49533;-34.520;150.798;2024-03-29T13:08:08;2.53;;;2.33;;
63398;SDS011;49533;-34.520;150.798;2024-03-29T13:10:41;2.30;;;2.20;;
63398;SDS011;49533;-34.520;150.798;2024-03-29T13:13:09;3.63;;;2.33;;
63398;SDS011;49533;-34.520;150.798;2024-03-29T13:15:37;2.35;;;2.15;;
63398;SDS011;49533;-34.520;150.798;2024-03-29T13:18:07;2.60;;;2.15;;
63398;SDS011;49533;-34.520;150.798;2024-03-29T13:20:37;2.35;;;2.15;;
63398;SDS011;49533;-34.520;150.798;2024-03-29T13:23:08;2.70;;;2.10;;
63398;SDS011;49533;-34.520;150.798;2024-03-29T13:25:36;2.40;;;2.20;;
63398;SDS011;49533;-34.520;150.798;2024-03-29T13:28:03;2.22;;;2.03;;
63398;SDS011;49533;-34.520;150.798;2024-03-29T13:30:31;2.35;;;2.15;;
63398;SDS011;49533;-34.520;150.798;2024-03-29T13:32:58;2.70;;;2.50;;
63398;SDS011;49533;-34.520;150.798;2024-03-29T13:35:25;3.47;;;2.80;;
63398;SDS011;49533;-34.520;150.798;2024-03-29T13:37:52;2.58;;;2.38;;
63398;SDS011;49533;-34.520;150.798;2024-03-29T13:40:21;2.40;;;2.30;;
63398;SDS011;49533;-34.520;150.798;2024-03-29T13:42:52;2.33;;;2.15;;
63398;SDS011;49533;-34.520;150.798;2024-03-29T13:45:19;2.80;;;2.40;;
63398;SDS011;49533;-34.520;150.798;2024-03-29T13:47:46;2.53;;;2.30;;
63398;SDS011;49533;-34.520;150.798;2024-03-29T13:50:13;2.80;;;2.60;;
63398;SDS011;49533;-34.520;150.798;2024-03-29T13:52:41;2.50;;;2.30;;
63398;SDS011;49533;-34.520;150.798;2024-03-29T13:55:09;2.53;;;2.33;;
63398;SDS011;49533;-34.520;150.798;2024-03-29T13:57:37;2.72;;;2.40;;
63398;SDS011;49533;-34.520;150.798;2024-03-29T14:00:04;2.25;;;2.15;;
63398;SDS011;49533;-34.520;150.798;2024-03-29T14:02:32;2.70;;;2.50;;
63398;SDS011;49533;-34.520;150.798;2024-03-29T14:05:00;2.78;;;2.50;;
63398;SDS011;49533;-34.520;150.798;2024-03-29T14:07:27;5.18;;;2.80;;
63398;SDS011;49533;-34.520;150.798;2024-03-29T14:09:54;2.50;;;2.25;;
63398;SDS011;49533;-34.520;150.798;2024-03-29T14:12:22;2.55;;;2.35;;
63398;SDS011;49533;-34.520;150.798;2024-03-29T14:14:51;2.83;;;2.60;;
63398;SDS011;49533;-34.520;150.798;2024-03-29T14:17:18;2.92;;;2.60;;